createdAt,value
2022-08-05T00:01:50.043Z,43.79
2022-08-05T00:04:37.954Z,44.03
2022-08-05T00:07:59.357Z,43.78
2022-08-05T00:10:31.185Z,43.99
2022-08-05T00:13:18.554Z,44.29
2022-08-05T00:16:06.091Z,43.96
2022-08-05T00:18:53.648Z,44.28
2022-08-05T00:21:38.910Z,44.37
2022-08-05T00:24:31.111Z,44.86
2022-08-05T00:27:16.987Z,44.81
2022-08-05T00:30:03.248Z,44.70
2022-08-05T00:32:49.671Z,44.95
2022-08-05T00:35:35.385Z,44.93
2022-08-05T00:38:33.896Z,45.13
2022-08-05T00:41:46.793Z,45.10
2022-08-05T00:44:37.707Z,45.48
2022-08-05T00:47:23.145Z,45.56
2022-08-05T00:50:09.053Z,46.13
2022-08-05T00:52:55.355Z,45.69
2022-08-05T00:55:42.903Z,45.89
2022-08-05T00:58:29.383Z,45.85
2022-08-05T01:01:15.709Z,46.35
2022-08-05T01:04:13.698Z,46.44
2022-08-05T01:06:59.332Z,46.42
2022-08-05T01:09:44.605Z,46.37
2022-08-05T01:12:30.419Z,46.49
2022-08-05T01:15:35.516Z,46.66
2022-08-05T01:18:37.890Z,46.68
2022-08-05T01:21:50.622Z,46.93
2022-08-05T01:24:52.492Z,46.79
2022-08-05T01:28:00.569Z,46.62
2022-08-05T01:31:04.955Z,46.85
2022-08-05T01:34:22.631Z,46.84
2022-08-05T01:37:25.929Z,46.87
2022-08-05T01:40:12.640Z,46.78
2022-08-05T01:43:00.877Z,46.80
2022-08-05T01:45:56.095Z,46.63
2022-08-05T01:48:45.124Z,46.55
2022-08-05T01:51:36.823Z,46.52
2022-08-05T01:54:25.695Z,46.79
2022-08-05T01:58:12.248Z,46.65
2022-08-05T02:00:19.868Z,46.64
2022-08-05T02:03:24.263Z,46.20
2022-08-05T02:06:37.441Z,46.34
2022-08-05T02:09:21.975Z,46.41
2022-08-05T02:12:10.455Z,46.49
2022-08-05T02:15:12.154Z,46.26
2022-08-05T02:18:31.561Z,46.91
2022-08-05T02:21:26.554Z,46.69
2022-08-05T02:24:17.884Z,46.56
2022-08-05T02:27:10.311Z,46.89
2022-08-05T02:29:58.554Z,47.10
2022-08-05T02:32:51.310Z,47.12
2022-08-05T02:35:44.907Z,47.36
2022-08-05T02:38:53.405Z,47.19
2022-08-05T02:41:58.084Z,47.19
2022-08-05T02:44:47.304Z,47.23
2022-08-05T02:47:58.362Z,47.08
2022-08-05T02:50:43.902Z,47.56
2022-08-05T02:53:39.079Z,47.67
2022-08-05T02:56:27.308Z,47.40
2022-08-05T02:59:13.294Z,48.11
2022-08-05T03:02:00.820Z,47.91
2022-08-05T03:04:53.260Z,48.29
2022-08-05T03:08:04.537Z,48.17
2022-08-05T03:11:53.019Z,48.49
2022-08-05T03:14:03.345Z,48.35
2022-08-05T03:16:49.217Z,48.39
2022-08-05T03:19:37.036Z,48.41
2022-08-05T03:22:32.282Z,48.79
2022-08-05T03:25:32.710Z,48.93
2022-08-05T03:28:20.076Z,49.10
2022-08-05T03:31:05.824Z,49.37
2022-08-05T03:33:53.203Z,49.49
2022-08-05T03:36:38.681Z,49.40
2022-08-05T03:39:27.241Z,49.72
2022-08-05T03:42:12.883Z,49.41
2022-08-05T03:45:22.144Z,49.48
2022-08-05T03:48:07.136Z,49.88
2022-08-05T03:52:48.553Z,50.13
2022-08-05T03:55:49.906Z,50.38
2022-08-05T03:57:55.307Z,50.49
2022-08-05T04:00:42.442Z,50.24
2022-08-05T04:03:36.014Z,50.29
2022-08-05T04:06:23.581Z,50.58
2022-08-05T04:09:11.586Z,50.71
2022-08-05T04:11:57.169Z,50.82
2022-08-05T04:14:43.769Z,51.34
2022-08-05T04:17:55.921Z,51.61
2022-08-05T04:20:34.491Z,51.57
2022-08-05T04:23:19.905Z,51.70
2022-08-05T04:26:25.251Z,51.92
2022-08-05T04:29:10.315Z,51.97
2022-08-05T04:31:56.875Z,52.24
2022-08-05T04:34:43.209Z,51.94
2022-08-05T04:38:01.104Z,51.56
2022-08-05T04:40:35.464Z,52.00
2022-08-05T04:43:21.913Z,52.37
2022-08-05T04:46:07.206Z,51.88
2022-08-05T04:48:52.483Z,51.86
2022-08-05T04:51:37.830Z,51.70
2022-08-05T04:54:26.935Z,52.14
2022-08-05T04:57:13.472Z,51.97
2022-08-05T04:59:58.969Z,52.00
2022-08-05T05:02:45.116Z,51.63
2022-08-05T05:05:31.081Z,51.51
2022-08-05T05:08:26.574Z,51.90
2022-08-05T05:11:15.618Z,51.77
2022-08-05T05:14:03.321Z,51.84
2022-08-05T05:16:48.325Z,51.82
2022-08-05T05:19:36.452Z,52.05
2022-08-05T05:22:25.843Z,52.27
2022-08-05T05:25:16.765Z,52.58
2022-08-05T05:28:03.113Z,52.73
2022-08-05T05:30:49.798Z,52.32
2022-08-05T05:33:59.564Z,52.68
2022-08-05T05:36:39.853Z,52.64
2022-08-05T05:39:25.093Z,52.36
2022-08-05T05:42:20.840Z,52.37
2022-08-05T05:45:06.960Z,52.34
2022-08-05T05:48:06.196Z,52.41
2022-08-05T05:50:53.554Z,52.63
2022-08-05T05:53:54.197Z,53.01
2022-08-05T05:56:44.147Z,52.85
2022-08-05T05:59:32.803Z,52.96
2022-08-05T06:02:36.764Z,52.87
2022-08-05T06:05:23.191Z,53.10
2022-08-05T06:08:08.478Z,52.82
2022-08-05T06:10:54.642Z,52.87
2022-08-05T06:13:40.657Z,53.10
2022-08-05T06:16:37.343Z,52.35
2022-08-05T06:19:34.090Z,52.20
2022-08-05T06:22:24.965Z,51.70
2022-08-05T06:25:25.305Z,51.69
2022-08-05T06:28:21.674Z,51.13
2022-08-05T06:31:10.904Z,50.94
2022-08-05T06:34:06.754Z,50.96
2022-08-05T06:36:58.243Z,50.75
2022-08-05T06:39:44.168Z,50.69
2022-08-05T06:42:29.400Z,50.41
2022-08-05T06:45:21.090Z,50.55
2022-08-05T06:48:36.901Z,50.24
2022-08-05T06:51:12.162Z,50.55
2022-08-05T06:54:18.143Z,50.53
2022-08-05T06:57:47.189Z,50.21
2022-08-05T07:00:11.450Z,49.99
2022-08-05T07:02:57.977Z,50.16
2022-08-05T07:05:43.174Z,49.73
2022-08-05T07:08:29.003Z,49.73
2022-08-05T07:11:15.217Z,49.29
2022-08-05T07:14:29.471Z,49.03
2022-08-05T07:18:01.692Z,49.08
2022-08-05T07:20:37.276Z,49.24
2022-08-05T07:23:26.508Z,48.67
2022-08-05T07:26:17.316Z,48.59
2022-08-05T07:29:08.964Z,48.35
2022-08-05T07:31:55.499Z,47.81
2022-08-05T07:34:42.323Z,47.34
2022-08-05T07:37:29.133Z,47.03
2022-08-05T07:40:31.948Z,46.80
2022-08-05T07:43:20.712Z,46.17
2022-08-05T07:46:06.482Z,46.10
2022-08-05T07:49:10.030Z,45.56
2022-08-05T07:51:55.336Z,45.11
2022-08-05T07:54:41.219Z,45.55
2022-08-05T07:57:55.133Z,44.74
2022-08-05T08:00:38.568Z,44.62
2022-08-05T08:03:24.469Z,44.46
2022-08-05T08:06:30.829Z,44.34
2022-08-05T08:09:15.982Z,44.37
2022-08-05T08:12:12.512Z,43.90
2022-08-05T08:15:13.871Z,43.04
2022-08-05T08:18:01.861Z,43.38
2022-08-05T08:21:03.333Z,42.98
2022-08-05T08:24:02.490Z,42.81
2022-08-05T08:26:50.831Z,42.84
2022-08-05T08:30:05.749Z,42.20
2022-08-05T08:32:43.331Z,41.83
2022-08-05T08:35:28.687Z,41.56
2022-08-05T08:38:36.004Z,41.53
2022-08-05T08:41:26.217Z,40.96
2022-08-05T08:45:18.291Z,40.65
2022-08-05T08:48:06.404Z,40.80
2022-08-05T08:51:22.298Z,39.85
2022-08-05T08:53:53.624Z,40.25
2022-08-05T08:56:47.605Z,40.41
2022-08-05T08:59:35.927Z,39.97
2022-08-05T09:02:21.958Z,39.38
2022-08-05T09:05:17.520Z,39.52
2022-08-05T09:08:03.960Z,39.48
2022-08-05T09:10:51.235Z,39.50
2022-08-05T09:14:09.997Z,39.58
2022-08-05T09:16:42.481Z,39.52
2022-08-05T09:19:36.551Z,39.58
2022-08-05T09:23:07.904Z,39.32
2022-08-05T09:26:11.622Z,39.60
2022-08-05T09:29:08.776Z,39.61
2022-08-05T09:32:41.297Z,39.70
2022-08-05T09:35:27.274Z,39.46
2022-08-05T09:38:18.165Z,38.97
2022-08-05T09:41:06.297Z,38.82
2022-08-05T09:43:54.141Z,38.64
2022-08-05T09:46:40.578Z,38.59
2022-08-05T09:50:02.238Z,38.06
2022-08-05T09:52:57.830Z,37.38
2022-08-05T09:55:56.991Z,37.27
2022-08-05T09:58:56.477Z,37.44
2022-08-05T10:01:45.868Z,37.15
2022-08-05T10:04:38.645Z,37.25
2022-08-05T10:07:31.989Z,37.50
2022-08-05T10:10:46.110Z,36.97
2022-08-05T10:13:47.751Z,37.01
2022-08-05T10:16:41.671Z,36.43
2022-08-05T10:20:03.690Z,35.88
2022-08-05T10:22:50.948Z,36.18
2022-08-05T10:25:36.444Z,36.00
2022-08-05T10:28:29.589Z,35.54
2022-08-05T10:32:48.396Z,35.37
2022-08-05T10:34:25.680Z,35.89
2022-08-05T10:37:16.190Z,35.74
2022-08-05T10:40:17.411Z,35.01
2022-08-05T10:43:31.091Z,34.31
2022-08-05T10:46:23.825Z,33.97
2022-08-05T10:49:10.508Z,33.84
2022-08-05T10:52:03.318Z,34.20
2022-08-05T10:55:06.777Z,33.84
2022-08-05T10:58:11.464Z,33.08
2022-08-05T11:01:01.926Z,32.77
2022-08-05T11:04:08.750Z,33.13
2022-08-05T11:06:57.979Z,32.69
2022-08-05T11:09:51.262Z,32.12
2022-08-05T11:12:50.391Z,32.26
2022-08-05T11:16:00.099Z,31.73
2022-08-05T11:18:46.983Z,31.72
2022-08-05T11:21:48.877Z,31.40
2022-08-05T11:24:34.243Z,31.35
2022-08-05T11:27:51.387Z,30.84
2022-08-05T11:30:58.806Z,30.89
2022-08-05T11:33:51.555Z,30.26
2022-08-05T11:36:42.872Z,30.45
2022-08-05T11:40:03.615Z,29.80
2022-08-05T11:42:49.841Z,29.48
2022-08-05T11:46:27.404Z,29.18
2022-08-05T11:48:53.617Z,28.52
2022-08-05T11:51:44.830Z,28.58
2022-08-05T11:54:34.999Z,29.05
2022-08-05T11:58:08.096Z,28.79
2022-08-05T12:00:30.640Z,27.86
2022-08-05T12:03:23.906Z,27.65
2022-08-05T12:06:16.695Z,28.36
2022-08-05T12:09:06.670Z,28.42
2022-08-05T12:11:52.438Z,28.55
2022-08-05T12:14:43.275Z,28.49
2022-08-05T12:18:02.897Z,28.47
2022-08-05T12:20:41.425Z,28.92
2022-08-05T12:23:26.611Z,28.46
2022-08-05T12:26:13.112Z,27.96
2022-08-05T12:28:58.953Z,27.87
2022-08-05T12:31:53.697Z,27.82
2022-08-05T12:34:39.647Z,27.70
2022-08-05T12:37:29.882Z,28.47
2022-08-05T12:40:26.332Z,28.67
2022-08-05T12:43:14.045Z,28.70
2022-08-05T12:46:06.337Z,27.82
2022-08-05T12:49:13.905Z,27.16
2022-08-05T12:52:14.065Z,26.08
2022-08-05T12:55:26.898Z,27.50
2022-08-05T12:58:50.059Z,27.76
2022-08-05T13:02:00.939Z,27.69
2022-08-05T13:04:41.859Z,26.99
2022-08-05T13:07:59.208Z,26.68
2022-08-05T13:10:50.251Z,27.26
2022-08-05T13:14:05.052Z,27.42
2022-08-05T13:16:58.106Z,28.28
2022-08-05T13:20:08.621Z,28.36
2022-08-05T13:22:53.973Z,28.80
2022-08-05T13:25:52.573Z,29.33
2022-08-05T13:28:44.348Z,28.87
2022-08-05T13:31:33.747Z,28.87
2022-08-05T13:34:34.581Z,28.45
2022-08-05T13:37:27.098Z,28.45
2022-08-05T13:40:36.926Z,28.72
2022-08-05T13:43:44.590Z,29.00
2022-08-05T13:46:44.353Z,28.93
2022-08-05T13:49:36.470Z,28.78
2022-08-05T13:52:29.336Z,28.01
2022-08-05T13:55:41.484Z,28.19
2022-08-05T13:58:30.486Z,29.26
2022-08-05T14:01:16.313Z,29.46
2022-08-05T14:04:20.163Z,29.71
2022-08-05T14:07:11.973Z,30.11
2022-08-05T14:10:18.929Z,29.24
2022-08-05T14:13:15.364Z,29.02
2022-08-05T14:16:08.238Z,28.45
2022-08-05T14:18:56.282Z,28.86
2022-08-05T14:22:09.499Z,29.20
2022-08-05T14:24:46.704Z,29.58
2022-08-05T14:27:32.917Z,29.45
2022-08-05T14:30:20.030Z,29.65
2022-08-05T14:33:06.452Z,30.19
2022-08-05T14:35:54.069Z,29.43
2022-08-05T14:38:39.974Z,29.23
2022-08-05T14:41:26.886Z,28.81
2022-08-05T14:44:21.814Z,27.90
2022-08-05T14:47:07.398Z,27.48
2022-08-05T14:49:59.621Z,27.93
2022-08-05T14:52:57.825Z,29.59
2022-08-05T14:55:43.928Z,29.60
2022-08-05T14:58:37.594Z,29.91
2022-08-05T15:01:48.970Z,30.02
2022-08-05T15:04:34.473Z,29.60
2022-08-05T15:08:08.587Z,30.06
2022-08-05T15:10:28.800Z,29.70
2022-08-05T15:13:14.390Z,30.44
2022-08-05T15:15:59.909Z,30.26
2022-08-05T15:18:47.173Z,30.80
2022-08-05T15:21:32.753Z,30.35
2022-08-05T15:24:20.723Z,30.58
2022-08-05T15:27:08.914Z,30.17
2022-08-05T15:29:56.686Z,29.99
2022-08-05T15:32:42.223Z,30.60
2022-08-05T15:35:36.296Z,30.35
2022-08-05T15:38:34.261Z,30.16
2022-08-05T15:41:24.140Z,30.79
2022-08-05T15:44:09.685Z,31.06
2022-08-05T15:46:55.669Z,30.51
2022-08-05T15:49:55.992Z,30.08
2022-08-05T15:52:53.424Z,30.79
2022-08-05T15:56:02.724Z,31.09
2022-08-05T15:58:49.306Z,31.20
2022-08-05T16:01:39.722Z,30.89
2022-08-05T16:04:37.163Z,30.91
2022-08-05T16:07:24.504Z,30.85
2022-08-05T16:10:14.596Z,31.45
2022-08-05T16:12:59.895Z,30.61
2022-08-05T16:15:45.110Z,30.67
2022-08-05T16:18:32.964Z,30.47
2022-08-05T16:21:18.324Z,30.95
2022-08-05T16:24:03.832Z,31.11
2022-08-05T16:26:57.550Z,30.93
2022-08-05T16:29:47.483Z,31.14
2022-08-05T16:32:36.487Z,31.40
2022-08-05T16:35:28.464Z,31.07
2022-08-05T16:38:25.372Z,30.79
2022-08-05T16:42:12.344Z,31.17
2022-08-05T16:44:18.503Z,30.76
2022-08-05T16:47:06.465Z,30.84
2022-08-05T16:50:12.897Z,30.95
2022-08-05T16:52:58.714Z,30.72
2022-08-05T16:55:57.601Z,30.23
2022-08-05T16:58:43.274Z,30.04
2022-08-05T17:01:53.056Z,30.25
2022-08-05T17:04:34.447Z,30.03
2022-08-05T17:07:39.110Z,30.32
2022-08-05T17:10:26.382Z,29.95
2022-08-05T17:13:16.760Z,30.67
2022-08-05T17:16:26.698Z,30.48
2022-08-05T17:19:09.717Z,31.22
2022-08-05T17:21:55.566Z,31.56
2022-08-05T17:24:56.741Z,31.41
2022-08-05T17:27:43.332Z,32.37
2022-08-05T17:30:29.222Z,32.20
2022-08-05T17:33:14.723Z,32.08
2022-08-05T17:36:08.397Z,32.33
2022-08-05T17:39:05.106Z,31.72
2022-08-05T17:42:19.189Z,32.05
2022-08-05T17:45:17.939Z,31.77
2022-08-05T17:48:07.815Z,31.64
2022-08-05T17:50:52.897Z,31.99
2022-08-05T17:53:39.203Z,31.41
2022-08-05T17:56:28.358Z,32.20
2022-08-05T17:59:13.850Z,32.06
2022-08-05T18:02:10.918Z,32.30
2022-08-05T18:04:56.228Z,31.84
2022-08-05T18:07:42.365Z,32.32
2022-08-05T18:10:27.788Z,32.37
2022-08-05T18:13:17.703Z,32.45
2022-08-05T18:16:04.737Z,32.72
2022-08-05T18:18:50.219Z,32.77
2022-08-05T18:22:09.221Z,32.81
2022-08-05T18:24:41.390Z,32.93
2022-08-05T18:27:26.639Z,33.02
2022-08-05T18:30:13.042Z,32.99
2022-08-05T18:33:00.428Z,32.29
2022-08-05T18:36:00.911Z,32.19
2022-08-05T18:38:49.196Z,32.55
2022-08-05T18:41:57.092Z,33.14
2022-08-05T18:44:51.809Z,33.51
2022-08-05T18:47:41.410Z,33.49
2022-08-05T18:50:46.849Z,33.58
2022-08-05T18:53:34.673Z,34.35
2022-08-05T18:56:28.357Z,34.38
2022-08-05T18:59:43.000Z,34.13
2022-08-05T19:02:36.492Z,34.85
2022-08-05T19:06:11.690Z,35.11
2022-08-05T19:08:30.148Z,35.22
2022-08-05T19:11:16.205Z,34.98
2022-08-05T19:14:52.397Z,35.54
2022-08-05T19:17:19.407Z,36.01
2022-08-05T19:20:06.634Z,36.61
2022-08-05T19:22:53.242Z,36.99
2022-08-05T19:25:43.326Z,38.44
2022-08-05T19:28:29.113Z,38.33
2022-08-05T19:31:18.088Z,38.19
2022-08-05T19:34:05.134Z,38.19
2022-08-05T19:36:51.124Z,38.89
2022-08-05T19:39:45.723Z,39.21
2022-08-05T19:42:37.012Z,39.59
2022-08-05T19:45:25.526Z,40.00
2022-08-05T19:48:14.242Z,40.60
2022-08-05T19:50:59.959Z,40.78
2022-08-05T19:54:03.721Z,41.45
2022-08-05T19:56:50.926Z,41.62
2022-08-05T19:59:55.177Z,41.52
2022-08-05T20:02:42.182Z,41.99
2022-08-05T20:05:27.405Z,41.95
2022-08-05T20:08:28.930Z,42.28
2022-08-05T20:11:14.292Z,42.45
2022-08-05T20:14:12.330Z,43.10
2022-08-05T20:17:03.388Z,43.69
2022-08-05T20:19:56.601Z,44.00
2022-08-05T20:22:44.168Z,44.26
2022-08-05T20:25:33.773Z,44.61
2022-08-05T20:28:24.995Z,45.09
2022-08-05T20:31:12.774Z,45.23
2022-08-05T20:33:58.010Z,45.81
2022-08-05T20:36:43.841Z,45.63
2022-08-05T20:39:35.490Z,45.86
2022-08-05T20:42:21.865Z,46.02
2022-08-05T20:45:08.427Z,46.24
2022-08-05T20:47:53.702Z,46.83
2022-08-05T20:50:45.344Z,47.40
2022-08-05T20:53:37.057Z,47.83
2022-08-05T20:56:29.141Z,47.30
2022-08-05T20:59:19.236Z,47.09
2022-08-05T21:02:12.347Z,47.02
2022-08-05T21:05:03.648Z,47.14
2022-08-05T21:07:52.096Z,47.11
2022-08-05T21:10:37.523Z,47.74
2022-08-05T21:13:47.112Z,48.50
2022-08-05T21:16:33.505Z,48.79
2022-08-05T21:19:20.344Z,49.47
2022-08-05T21:22:09.469Z,49.69
2022-08-05T21:24:54.800Z,50.87
2022-08-05T21:27:40.277Z,52.61
2022-08-05T21:30:32.718Z,53.15
2022-08-05T21:33:22.267Z,52.31
2022-08-05T21:36:09.105Z,51.88
2022-08-05T21:38:55.271Z,51.59
2022-08-05T21:41:40.374Z,51.82
2022-08-05T21:44:26.994Z,51.39
2022-08-05T21:47:32.795Z,50.92
2022-08-05T21:50:17.456Z,51.35
2022-08-05T21:53:04.303Z,51.52
2022-08-05T21:56:06.258Z,51.53
2022-08-05T21:58:57.514Z,51.41
2022-08-05T22:01:43.335Z,51.51
2022-08-05T22:04:31.455Z,51.58
2022-08-05T22:07:16.688Z,51.59
2022-08-05T22:10:02.101Z,51.32
2022-08-05T22:12:50.867Z,51.47
2022-08-05T22:16:01.397Z,50.86
2022-08-05T22:18:42.156Z,50.45
2022-08-05T22:21:34.164Z,50.21
2022-08-05T22:24:40.486Z,50.32
2022-08-05T22:28:08.305Z,51.06
2022-08-05T22:30:56.903Z,51.59
2022-08-05T22:33:56.705Z,51.63
2022-08-05T22:36:45.738Z,52.02
2022-08-05T22:39:34.484Z,52.57
2022-08-05T22:42:26.047Z,52.92
2022-08-05T22:45:11.601Z,52.82
2022-08-05T22:47:57.287Z,52.91
2022-08-05T22:50:46.208Z,53.02
2022-08-05T22:53:41.124Z,52.99
2022-08-05T22:56:30.742Z,53.22
2022-08-05T22:59:45.304Z,54.20
2022-08-05T23:02:28.864Z,54.39
2022-08-05T23:05:16.345Z,54.67
2022-08-05T23:08:01.324Z,54.96
2022-08-05T23:10:46.584Z,54.26
2022-08-05T23:13:31.902Z,53.67
2022-08-05T23:16:39.671Z,53.95
2022-08-05T23:19:29.151Z,54.26
2022-08-05T23:22:27.207Z,54.27
2022-08-05T23:25:12.830Z,54.16
2022-08-05T23:28:02.479Z,54.20
2022-08-05T23:30:53.152Z,54.45
2022-08-05T23:34:05.615Z,55.44
2022-08-05T23:36:45.041Z,55.12
2022-08-05T23:39:32.045Z,55.15
2022-08-05T23:42:29.920Z,55.10
2022-08-05T23:45:15.728Z,55.11
2022-08-05T23:48:03.108Z,55.12
2022-08-05T23:50:49.699Z,54.72
2022-08-05T23:53:46.732Z,54.71
2022-08-05T23:56:32.754Z,55.20
2022-08-05T23:59:19.521Z,55.41
